createdAt,value
2023-05-02T00:01:40.892Z,51.77
2023-05-02T00:04:08.190Z,52.43
2023-05-02T00:06:35.453Z,52.81
2023-05-02T00:09:05.330Z,52.54
2023-05-02T00:11:34.300Z,52.72
2023-05-02T00:14:00.865Z,52.23
2023-05-02T00:16:27.573Z,52.07
2023-05-02T00:18:54.256Z,52.09
2023-05-02T00:21:20.842Z,52.10
2023-05-02T00:23:47.423Z,52.21
2023-05-02T00:26:14.030Z,52.70
2023-05-02T00:28:42.262Z,52.87
2023-05-02T00:31:09.444Z,53.26
2023-05-02T00:33:37.849Z,53.27
2023-05-02T00:36:12.973Z,53.53
2023-05-02T00:38:39.569Z,53.53
2023-05-02T00:41:07.018Z,53.37
2023-05-02T00:43:33.735Z,53.91
2023-05-02T00:46:00.359Z,53.46
2023-05-02T00:48:27.102Z,52.76
2023-05-02T00:50:56.050Z,53.10
2023-05-02T00:53:23.022Z,52.68
2023-05-02T00:55:49.642Z,52.93
2023-05-02T00:58:17.968Z,52.57
2023-05-02T01:01:03.324Z,52.47
2023-05-02T01:03:48.890Z,51.91
2023-05-02T01:06:16.852Z,52.41
2023-05-02T01:08:48.631Z,52.33
2023-05-02T01:11:19.493Z,51.81
2023-05-02T01:13:47.224Z,52.15
2023-05-02T01:16:19.121Z,52.33
2023-05-02T01:18:47.494Z,52.87
2023-05-02T01:21:14.053Z,53.13
2023-05-02T01:23:41.087Z,53.13
2023-05-02T01:26:10.898Z,53.56
2023-05-02T01:28:55.926Z,53.76
2023-05-02T01:31:26.328Z,53.88
2023-05-02T01:33:55.120Z,54.03
2023-05-02T01:36:23.388Z,54.72
2023-05-02T01:38:50.052Z,55.41
2023-05-02T01:41:17.202Z,55.42
2023-05-02T01:43:44.500Z,55.58
2023-05-02T01:46:11.601Z,55.83
2023-05-02T01:48:39.009Z,56.26
2023-05-02T01:51:07.399Z,56.53
2023-05-02T01:53:34.794Z,57.39
2023-05-02T01:56:01.698Z,57.29
2023-05-02T01:58:30.763Z,57.75
2023-05-02T02:00:58.372Z,57.57
2023-05-02T02:03:29.884Z,58.30
2023-05-02T02:05:56.918Z,58.69
2023-05-02T02:08:35.946Z,58.48
2023-05-02T02:11:06.382Z,58.56
2023-05-02T02:13:39.190Z,58.53
2023-05-02T02:16:10.170Z,58.90
2023-05-02T02:18:38.953Z,58.28
2023-05-02T02:21:09.854Z,58.26
2023-05-02T02:23:38.215Z,58.64
2023-05-02T02:26:05.170Z,58.31
2023-05-02T02:28:32.044Z,58.28
2023-05-02T02:30:58.651Z,58.26
2023-05-02T02:33:29.974Z,57.84
2023-05-02T02:36:04.325Z,58.04
2023-05-02T02:38:35.362Z,57.91
2023-05-02T02:41:12.594Z,58.26
2023-05-02T02:44:06.179Z,58.09
2023-05-02T02:46:42.090Z,58.75
2023-05-02T02:49:27.056Z,58.52
2023-05-02T02:51:58.330Z,58.66
2023-05-02T02:54:27.393Z,58.83
2023-05-02T02:57:04.679Z,59.09
2023-05-02T02:59:35.825Z,59.19
2023-05-02T03:02:07.141Z,59.03
2023-05-02T03:04:44.434Z,59.55
2023-05-02T03:07:11.224Z,59.30
2023-05-02T03:09:47.939Z,58.91
2023-05-02T03:12:22.244Z,59.05
2023-05-02T03:14:50.562Z,58.71
2023-05-02T03:17:18.674Z,59.32
2023-05-02T03:19:45.727Z,60.00
2023-05-02T03:22:12.474Z,59.64
2023-05-02T03:24:39.811Z,60.16
2023-05-02T03:27:07.735Z,60.68
2023-05-02T03:29:40.164Z,60.17
2023-05-02T03:32:09.373Z,61.08
2023-05-02T03:34:39.683Z,61.44
2023-05-02T03:37:06.333Z,61.62
2023-05-02T03:39:35.919Z,62.58
2023-05-02T03:42:03.011Z,63.53
2023-05-02T03:44:31.928Z,63.81
2023-05-02T03:46:58.618Z,62.22
2023-05-02T03:49:29.301Z,61.67
2023-05-02T03:51:56.222Z,62.70
2023-05-02T03:54:32.296Z,63.80
2023-05-02T03:56:59.949Z,64.60
2023-05-02T03:59:32.412Z,64.97
2023-05-02T04:02:03.297Z,64.70
2023-05-02T04:04:38.631Z,64.76
2023-05-02T04:07:07.832Z,64.90
2023-05-02T04:09:34.415Z,65.19
2023-05-02T04:12:11.464Z,64.75
2023-05-02T04:14:42.600Z,64.75
2023-05-02T04:17:10.012Z,65.21
2023-05-02T04:19:40.659Z,65.39
2023-05-02T04:22:08.110Z,65.88
2023-05-02T04:24:38.932Z,65.96
2023-05-02T04:27:05.535Z,65.81
2023-05-02T04:29:32.609Z,66.27
2023-05-02T04:31:59.810Z,66.43
2023-05-02T04:34:28.632Z,67.29
2023-05-02T04:39:36.603Z,66.99
2023-05-02T04:42:10.861Z,67.24
2023-05-02T04:44:47.438Z,67.47
2023-05-02T04:47:14.080Z,68.67
2023-05-02T04:49:41.081Z,68.56
2023-05-02T04:52:08.187Z,68.77
2023-05-02T04:54:34.815Z,69.12
2023-05-02T04:57:03.616Z,69.88
2023-05-02T04:59:33.960Z,68.85
2023-05-02T05:02:02.449Z,69.67
2023-05-02T05:04:36.527Z,68.78
2023-05-02T05:07:03.225Z,69.06
2023-05-02T05:09:30.064Z,69.22
2023-05-02T05:11:59.747Z,68.83
2023-05-02T05:14:26.406Z,69.12
2023-05-02T05:16:54.705Z,68.98
2023-05-02T05:19:22.158Z,69.27
2023-05-02T05:21:48.982Z,69.30
2023-05-02T05:24:18.542Z,70.18
2023-05-02T05:26:46.345Z,69.11
2023-05-02T05:29:13.549Z,69.88
2023-05-02T05:31:44.903Z,70.08
2023-05-02T05:34:15.007Z,71.61
2023-05-02T05:36:43.108Z,70.79
2023-05-02T05:39:10.652Z,69.71
2023-05-02T05:41:39.477Z,70.26
2023-05-02T05:44:09.200Z,70.65
2023-05-02T05:46:35.938Z,69.28
2023-05-02T05:49:03.805Z,70.07
2023-05-02T05:51:31.516Z,71.72
2023-05-02T05:53:59.431Z,71.77
2023-05-02T05:56:27.035Z,73.20
2023-05-02T05:59:03.268Z,72.87
2023-05-02T06:01:29.872Z,73.13
2023-05-02T06:03:56.814Z,72.62
2023-05-02T06:06:23.734Z,73.23
2023-05-02T06:08:53.420Z,74.16
2023-05-02T06:11:20.656Z,74.71
2023-05-02T06:13:47.334Z,75.85
2023-05-02T06:16:14.333Z,76.68
2023-05-02T06:18:40.973Z,76.17
2023-05-02T06:21:07.659Z,79.08
2023-05-02T06:23:35.493Z,78.90
2023-05-02T06:26:03.361Z,78.82
2023-05-02T06:28:30.149Z,79.19
2023-05-02T06:31:01.307Z,78.40
2023-05-02T06:33:28.454Z,78.13
2023-05-02T06:35:58.168Z,78.68
2023-05-02T06:38:25.860Z,77.69
2023-05-02T06:40:52.412Z,76.15
2023-05-02T06:43:19.203Z,77.24
2023-05-02T06:45:45.787Z,76.93
2023-05-02T06:48:12.434Z,77.93
2023-05-02T06:50:39.164Z,78.50
2023-05-02T06:53:08.533Z,77.04
2023-05-02T06:55:35.077Z,76.56
2023-05-02T06:58:04.524Z,74.21
2023-05-02T07:00:31.219Z,75.85
2023-05-02T07:02:58.049Z,75.21
2023-05-02T07:05:24.612Z,74.97
2023-05-02T07:07:51.175Z,73.83
2023-05-02T07:10:17.737Z,73.24
2023-05-02T07:12:44.361Z,72.78
2023-05-02T07:15:11.460Z,72.89
2023-05-02T07:17:40.396Z,71.54
2023-05-02T07:20:07.747Z,73.88
2023-05-02T07:22:41.734Z,73.17
2023-05-02T07:25:08.586Z,73.41
2023-05-02T07:30:15.767Z,73.35
2023-05-02T07:32:42.335Z,72.34
2023-05-02T07:35:09.597Z,72.02
2023-05-02T07:37:36.981Z,71.58
2023-05-02T07:40:07.422Z,72.39
2023-05-02T07:42:34.010Z,72.25
2023-05-02T07:45:00.760Z,73.26
2023-05-02T07:47:27.572Z,74.31
2023-05-02T07:49:54.534Z,71.79
2023-05-02T07:52:23.562Z,69.87
2023-05-02T07:54:50.468Z,70.50
2023-05-02T07:57:17.319Z,68.20
2023-05-02T07:59:43.891Z,66.20
2023-05-02T08:02:11.335Z,64.55
2023-05-02T08:04:45.470Z,61.58
2023-05-02T08:07:15.552Z,60.98
2023-05-02T08:09:42.358Z,60.31
2023-05-02T08:12:11.243Z,59.99
2023-05-02T08:14:38.106Z,59.18
2023-05-02T08:17:04.632Z,59.35
2023-05-02T08:19:33.306Z,59.16
2023-05-02T08:22:02.969Z,59.97
2023-05-02T08:24:31.000Z,60.29
2023-05-02T08:26:57.608Z,58.91
2023-05-02T08:29:24.427Z,58.21
2023-05-02T08:31:53.138Z,57.45
2023-05-02T08:34:19.841Z,57.13
2023-05-02T08:36:47.274Z,57.28
2023-05-02T08:39:13.949Z,55.57
2023-05-02T08:41:40.761Z,56.35
2023-05-02T08:44:08.867Z,54.81
2023-05-02T08:46:36.336Z,55.19
2023-05-02T08:49:03.269Z,54.25
2023-05-02T08:51:32.766Z,53.62
2023-05-02T08:53:59.927Z,53.37
2023-05-02T08:56:26.784Z,53.49
2023-05-02T08:58:53.466Z,53.05
2023-05-02T09:01:22.734Z,53.91
2023-05-02T09:03:49.956Z,55.30
2023-05-02T09:06:20.735Z,53.71
2023-05-02T09:08:54.835Z,54.91
2023-05-02T09:11:24.546Z,53.94
2023-05-02T09:13:54.540Z,53.94
2023-05-02T09:16:25.558Z,54.96
2023-05-02T09:18:56.511Z,54.84
2023-05-02T09:21:29.176Z,53.46
2023-05-02T09:23:56.934Z,53.81
2023-05-02T09:26:36.761Z,53.62
2023-05-02T09:29:04.711Z,53.40
2023-05-02T09:34:08.849Z,53.71
2023-05-02T09:36:40.002Z,53.05
2023-05-02T09:39:11.902Z,52.64
2023-05-02T09:41:46.635Z,52.72
2023-05-02T09:44:14.402Z,52.01
2023-05-02T09:46:46.006Z,52.73
2023-05-02T09:49:12.664Z,53.53
2023-05-02T09:51:39.333Z,52.71
2023-05-02T09:54:05.937Z,54.25
2023-05-02T09:56:51.711Z,53.26
2023-05-02T09:59:18.365Z,54.85
2023-05-02T10:01:45.100Z,54.02
2023-05-02T10:04:19.541Z,53.04
2023-05-02T10:06:51.005Z,52.59
2023-05-02T10:09:22.028Z,50.39
2023-05-02T10:11:56.038Z,51.25
2023-05-02T10:14:23.529Z,51.45
2023-05-02T10:16:59.860Z,52.38
2023-05-02T10:19:47.958Z,50.69
2023-05-02T10:22:15.675Z,51.85
2023-05-02T10:24:42.570Z,51.98
2023-05-02T10:27:09.289Z,51.92
2023-05-02T10:29:36.169Z,51.14
2023-05-02T10:32:04.585Z,51.37
2023-05-02T10:34:32.394Z,51.65
2023-05-02T10:37:01.538Z,50.56
2023-05-02T10:39:28.618Z,50.73
2023-05-02T10:41:56.594Z,50.11
2023-05-02T10:44:39.804Z,49.73
2023-05-02T10:47:27.125Z,49.66
2023-05-02T10:49:55.466Z,49.78
2023-05-02T10:52:25.746Z,50.00
2023-05-02T10:54:52.516Z,48.56
2023-05-02T10:57:19.158Z,48.54
2023-05-02T10:59:46.541Z,48.37
2023-05-02T11:02:25.509Z,48.99
2023-05-02T11:05:06.067Z,51.02
2023-05-02T11:07:33.542Z,51.18
2023-05-02T11:10:15.369Z,49.43
2023-05-02T11:12:49.255Z,49.23
2023-05-02T11:15:38.600Z,50.16
2023-05-02T11:18:09.387Z,48.37
2023-05-02T11:20:37.033Z,48.23
2023-05-02T11:23:16.264Z,47.82
2023-05-02T11:25:43.766Z,47.43
2023-05-02T11:28:29.078Z,46.51
2023-05-02T11:30:56.756Z,46.50
2023-05-02T11:33:24.538Z,47.52
2023-05-02T11:35:51.360Z,45.88
2023-05-02T11:38:19.604Z,46.82
2023-05-02T11:40:52.444Z,48.12
2023-05-02T11:43:19.702Z,48.38
2023-05-02T11:45:46.387Z,48.12
2023-05-02T11:48:13.791Z,47.42
2023-05-02T11:50:50.459Z,46.61
2023-05-02T11:53:23.280Z,47.81
2023-05-02T11:55:53.992Z,46.69
2023-05-02T11:58:24.272Z,48.03
2023-05-02T12:00:52.532Z,47.05
2023-05-02T12:03:39.389Z,47.38
2023-05-02T12:06:18.941Z,47.42
2023-05-02T12:08:49.068Z,45.40
2023-05-02T12:11:16.714Z,44.71
2023-05-02T12:13:50.502Z,42.68
2023-05-02T12:16:18.444Z,43.04
2023-05-02T12:18:48.499Z,44.70
2023-05-02T12:21:15.557Z,44.13
2023-05-02T12:23:42.546Z,42.20
2023-05-02T12:26:21.935Z,42.67
2023-05-02T12:28:50.533Z,42.47
2023-05-02T12:31:17.274Z,42.83
2023-05-02T12:33:44.751Z,45.11
2023-05-02T12:36:11.867Z,44.30
2023-05-02T12:38:41.091Z,42.60
2023-05-02T12:41:08.090Z,43.21
2023-05-02T12:43:49.575Z,41.26
2023-05-02T12:46:16.620Z,40.46
2023-05-02T12:48:44.858Z,40.04
2023-05-02T12:51:22.536Z,41.62
2023-05-02T12:53:49.214Z,40.54
2023-05-02T12:56:23.996Z,39.28
2023-05-02T12:58:51.442Z,37.41
2023-05-02T13:01:18.083Z,38.43
2023-05-02T13:03:44.859Z,37.42
2023-05-02T13:06:13.787Z,35.24
2023-05-02T13:08:40.486Z,35.09
2023-05-02T13:11:09.385Z,35.53
2023-05-02T13:13:38.144Z,35.81
2023-05-02T13:16:05.170Z,34.57
2023-05-02T13:18:32.107Z,36.55
2023-05-02T13:20:58.745Z,34.69
2023-05-02T13:23:25.443Z,35.28
2023-05-02T13:25:52.113Z,33.57
2023-05-02T13:28:18.949Z,31.73
2023-05-02T13:30:45.555Z,28.56
2023-05-02T13:33:12.246Z,30.39
2023-05-02T13:35:38.810Z,30.48
2023-05-02T13:38:05.420Z,28.48
2023-05-02T13:40:32.024Z,29.23
2023-05-02T13:42:58.740Z,31.91
2023-05-02T13:45:25.388Z,33.95
2023-05-02T13:47:54.872Z,32.02
2023-05-02T13:50:21.538Z,30.48
2023-05-02T13:52:51.303Z,33.21
2023-05-02T13:55:18.066Z,29.82
2023-05-02T13:57:44.973Z,29.89
2023-05-02T14:00:12.082Z,28.83
2023-05-02T14:02:41.739Z,28.70
2023-05-02T14:05:08.797Z,28.39
2023-05-02T14:07:35.370Z,25.76
2023-05-02T14:10:02.109Z,26.99
2023-05-02T14:12:29.063Z,29.04
2023-05-02T14:14:55.740Z,29.44
2023-05-02T14:17:25.625Z,29.52
2023-05-02T14:19:52.650Z,28.27
2023-05-02T14:22:22.091Z,27.83
2023-05-02T14:24:49.023Z,26.74
2023-05-02T14:27:18.402Z,26.47
2023-05-02T14:29:45.655Z,25.69
2023-05-02T14:32:12.313Z,26.47
2023-05-02T14:34:39.150Z,27.74
2023-05-02T14:37:06.033Z,28.10
2023-05-02T14:39:32.632Z,30.06
2023-05-02T14:41:59.312Z,31.48
2023-05-02T14:44:25.941Z,34.14
2023-05-02T14:46:54.354Z,34.80
2023-05-02T14:49:21.139Z,34.59
2023-05-02T14:51:48.834Z,35.90
2023-05-02T14:54:16.888Z,34.86
2023-05-02T14:56:46.581Z,35.22
2023-05-02T14:59:13.853Z,34.30
2023-05-02T15:01:44.431Z,35.62
2023-05-02T15:04:14.305Z,35.61
2023-05-02T15:06:44.121Z,36.83
2023-05-02T15:09:12.093Z,35.57
2023-05-02T15:11:38.634Z,35.48
2023-05-02T15:14:05.500Z,37.27
2023-05-02T15:16:32.204Z,36.46
2023-05-02T15:19:04.207Z,36.79
2023-05-02T15:21:33.039Z,35.22
2023-05-02T15:23:59.954Z,34.97
2023-05-02T15:26:29.835Z,36.35
2023-05-02T15:29:01.806Z,35.28
2023-05-02T15:31:28.618Z,37.11
2023-05-02T15:33:58.299Z,35.70
2023-05-02T15:36:31.139Z,37.09
2023-05-02T15:39:00.035Z,37.06
2023-05-02T15:41:27.552Z,37.18
2023-05-02T15:43:54.152Z,37.06
2023-05-02T15:46:20.904Z,35.97
2023-05-02T15:48:48.034Z,36.98
2023-05-02T15:51:16.936Z,37.20
2023-05-02T15:53:44.975Z,37.04
2023-05-02T15:56:11.909Z,36.33
2023-05-02T15:58:38.881Z,36.89
2023-05-02T16:01:08.268Z,34.87
2023-05-02T16:03:40.347Z,34.94
2023-05-02T16:06:07.747Z,36.28
2023-05-02T16:08:34.578Z,35.27
2023-05-02T16:11:02.739Z,36.82
2023-05-02T16:13:32.222Z,37.41
2023-05-02T16:15:58.942Z,37.52
2023-05-02T16:18:28.601Z,37.89
2023-05-02T16:20:58.401Z,39.39
2023-05-02T16:23:31.114Z,39.87
2023-05-02T16:26:01.752Z,41.06
2023-05-02T16:28:30.324Z,40.65
2023-05-02T16:30:57.084Z,40.36
2023-05-02T16:33:23.701Z,41.52
2023-05-02T16:35:59.639Z,40.34
2023-05-02T16:38:26.773Z,39.44
2023-05-02T16:40:53.345Z,40.07
2023-05-02T16:43:20.244Z,40.11
2023-05-02T16:45:47.203Z,39.05
2023-05-02T16:48:14.715Z,38.59
2023-05-02T16:50:43.565Z,38.37
2023-05-02T16:53:10.174Z,38.10
2023-05-02T16:55:36.836Z,38.45
2023-05-02T16:58:03.393Z,38.66
2023-05-02T17:00:30.703Z,41.06
2023-05-02T17:02:57.299Z,40.37
2023-05-02T17:05:23.964Z,40.59
2023-05-02T17:07:51.238Z,39.61
2023-05-02T17:10:19.108Z,40.47
2023-05-02T17:12:46.809Z,40.56
2023-05-02T17:15:19.180Z,41.08
2023-05-02T17:17:45.826Z,41.65
2023-05-02T17:20:13.322Z,40.68
2023-05-02T17:22:41.548Z,40.95
2023-05-02T17:25:09.083Z,41.01
2023-05-02T17:27:36.369Z,40.76
2023-05-02T17:30:04.273Z,41.32
2023-05-02T17:32:33.390Z,42.50
2023-05-02T17:35:00.005Z,42.50
2023-05-02T17:37:26.574Z,43.25
2023-05-02T17:39:53.119Z,43.71
2023-05-02T17:42:19.791Z,43.00
2023-05-02T17:44:48.423Z,44.59
2023-05-02T17:47:19.784Z,43.51
2023-05-02T17:49:55.838Z,44.57
2023-05-02T17:52:22.497Z,44.46
2023-05-02T17:54:51.399Z,44.83
2023-05-02T17:57:18.097Z,43.93
2023-05-02T17:59:45.695Z,43.81
2023-05-02T18:02:12.338Z,44.28
2023-05-02T18:04:38.989Z,42.72
2023-05-02T18:07:06.290Z,43.56
2023-05-02T18:09:32.957Z,42.71
2023-05-02T18:12:00.597Z,42.98
2023-05-02T18:14:27.184Z,42.09
2023-05-02T18:16:53.791Z,42.07
2023-05-02T18:19:20.436Z,43.47
2023-05-02T18:21:47.044Z,42.14
2023-05-02T18:24:13.636Z,41.83
2023-05-02T18:26:40.383Z,42.60
2023-05-02T18:29:06.999Z,42.72
2023-05-02T18:31:34.898Z,43.55
2023-05-02T18:34:01.544Z,42.03
2023-05-02T18:36:31.622Z,42.80
2023-05-02T18:39:04.381Z,42.94
2023-05-02T18:41:33.306Z,42.47
2023-05-02T18:44:00.738Z,41.91
2023-05-02T18:46:27.773Z,42.04
2023-05-02T18:48:54.351Z,41.91
2023-05-02T18:51:21.727Z,42.55
2023-05-02T18:53:49.175Z,42.38
2023-05-02T18:56:15.916Z,42.04
2023-05-02T18:58:42.999Z,42.30
2023-05-02T19:01:14.903Z,41.66
2023-05-02T19:03:44.800Z,41.98
2023-05-02T19:06:14.322Z,41.79
2023-05-02T19:08:41.020Z,42.62
2023-05-02T19:11:07.676Z,42.01
2023-05-02T19:13:34.313Z,41.96
2023-05-02T19:16:01.178Z,42.55
2023-05-02T19:18:27.991Z,41.54
2023-05-02T19:20:54.609Z,41.48
2023-05-02T19:23:21.209Z,41.71
2023-05-02T19:25:47.860Z,41.71
2023-05-02T19:28:16.825Z,41.46
2023-05-02T19:30:44.275Z,41.64
2023-05-02T19:33:11.342Z,41.31
2023-05-02T19:35:38.037Z,42.16
2023-05-02T19:38:04.644Z,41.33
2023-05-02T19:40:31.322Z,41.57
2023-05-02T19:42:57.896Z,41.91
2023-05-02T19:45:24.501Z,41.80
2023-05-02T19:47:51.163Z,41.51
2023-05-02T19:50:17.811Z,41.74
2023-05-02T19:52:50.730Z,41.51
2023-05-02T19:55:18.581Z,41.52
2023-05-02T19:57:51.104Z,41.83
2023-05-02T20:00:19.946Z,41.77
2023-05-02T20:02:48.683Z,42.57
2023-05-02T20:05:16.651Z,42.42
2023-05-02T20:07:44.593Z,43.19
2023-05-02T20:10:11.295Z,43.09
2023-05-02T20:12:38.030Z,43.02
2023-05-02T20:15:05.367Z,43.10
2023-05-02T20:17:32.016Z,43.81
2023-05-02T20:20:01.139Z,43.96
2023-05-02T20:22:27.834Z,43.67
2023-05-02T20:24:54.467Z,44.41
2023-05-02T20:27:20.980Z,44.23
2023-05-02T20:29:47.594Z,44.10
2023-05-02T20:32:14.242Z,44.34
2023-05-02T20:34:42.977Z,44.74
2023-05-02T20:37:11.726Z,44.97
2023-05-02T20:39:38.322Z,45.37
2023-05-02T20:42:05.611Z,44.82
2023-05-02T20:44:39.177Z,45.29
2023-05-02T20:47:05.822Z,45.53
2023-05-02T20:49:33.210Z,45.99
2023-05-02T20:52:06.333Z,45.29
2023-05-02T20:54:32.946Z,45.62
2023-05-02T20:57:01.972Z,45.44
2023-05-02T20:59:28.582Z,45.41
2023-05-02T21:01:57.780Z,46.22
2023-05-02T21:04:26.729Z,46.27
2023-05-02T21:06:54.997Z,46.70
2023-05-02T21:09:21.564Z,46.46
2023-05-02T21:11:48.187Z,47.75
2023-05-02T21:14:15.748Z,48.20
2023-05-02T21:16:45.244Z,47.10
2023-05-02T21:19:11.802Z,48.03
2023-05-02T21:21:38.433Z,47.91
2023-05-02T21:24:07.728Z,47.82
2023-05-02T21:26:34.518Z,48.46
2023-05-02T21:29:01.288Z,48.28
2023-05-02T21:31:27.846Z,48.71
2023-05-02T21:33:54.489Z,49.43
2023-05-02T21:36:21.109Z,48.59
2023-05-02T21:38:47.689Z,49.01
2023-05-02T21:41:14.232Z,49.53
2023-05-02T21:43:43.130Z,49.99
2023-05-02T21:46:12.884Z,50.31
2023-05-02T21:48:39.659Z,50.79
2023-05-02T21:51:15.622Z,50.77
2023-05-02T21:53:42.622Z,51.25
2023-05-02T21:56:09.788Z,51.13
2023-05-02T21:58:36.393Z,51.88
2023-05-02T22:01:05.986Z,52.08
2023-05-02T22:03:34.632Z,52.41
2023-05-02T22:06:07.909Z,53.51
2023-05-02T22:08:34.710Z,54.50
2023-05-02T22:11:06.930Z,54.32
2023-05-02T22:13:36.991Z,54.68
2023-05-02T22:16:03.762Z,55.24
2023-05-02T22:18:30.408Z,55.54
2023-05-02T22:20:58.686Z,54.09
2023-05-02T22:23:25.402Z,55.27
2023-05-02T22:25:52.064Z,54.79
2023-05-02T22:28:18.663Z,56.74
2023-05-02T22:30:45.444Z,56.27
2023-05-02T22:33:12.854Z,55.92
2023-05-02T22:35:39.737Z,55.58
2023-05-02T22:38:11.031Z,55.61
2023-05-02T22:40:37.637Z,55.26
2023-05-02T22:43:04.327Z,55.10
2023-05-02T22:45:35.190Z,56.05
2023-05-02T22:48:01.946Z,55.54
2023-05-02T22:50:31.350Z,56.22
2023-05-02T22:52:59.658Z,56.45
2023-05-02T22:55:26.261Z,56.60
2023-05-02T22:57:52.902Z,54.91
2023-05-02T23:00:19.892Z,55.84
2023-05-02T23:02:46.582Z,55.92
2023-05-02T23:05:14.274Z,57.16
2023-05-02T23:07:40.968Z,57.90
2023-05-02T23:10:07.954Z,56.98
2023-05-02T23:12:34.614Z,57.36
2023-05-02T23:15:03.455Z,57.68
2023-05-02T23:17:30.211Z,58.45
2023-05-02T23:19:57.101Z,57.67
2023-05-02T23:22:23.701Z,57.34
2023-05-02T23:24:50.329Z,57.97
2023-05-02T23:27:16.941Z,58.08
2023-05-02T23:29:43.483Z,58.83
2023-05-02T23:32:10.185Z,58.37
2023-05-02T23:34:37.190Z,58.40
2023-05-02T23:37:08.680Z,57.80
2023-05-02T23:39:35.339Z,57.92
2023-05-02T23:42:03.855Z,58.55
2023-05-02T23:44:31.277Z,60.27
2023-05-02T23:47:04.030Z,58.68
2023-05-02T23:49:30.797Z,58.62
2023-05-02T23:51:57.369Z,59.96
2023-05-02T23:54:24.030Z,60.89
2023-05-02T23:56:50.719Z,60.51
2023-05-02T23:59:20.054Z,60.51
